Terminal Aerodrome Forecast
Issued by NWS Bismarck, ND

Home | Current Version | Previous Version | Graphics & Text | Print | Product List | Glossary On
Versions: 1 2 3 4 5 6 7 8 9 10 11 12 13 14 15 16 17 18 19
000
FTUS43 KBIS 151131
TAFISN
TAF
KISN 151131Z 1512/1612 22006KT P6SM BKN100
     FM151600 25008KT P6SM BKN120
     FM160100 28007KT P6SM OVC050
     FM160400 30009KT P6SM OVC030=

USA.gov is the U.S. government's official web portal to all federal, state and local government web resources and services.